createdAt,value
2018-07-15T00:00:35.125Z,4.50
2018-07-15T00:05:38.259Z,4.83
2018-07-15T00:10:44.242Z,4.47
2018-07-15T00:15:47.393Z,4.37
2018-07-15T00:20:50.473Z,4.93
2018-07-15T00:25:53.583Z,4.80
2018-07-15T00:30:56.713Z,5.47
2018-07-15T00:35:59.827Z,4.40
2018-07-15T00:41:02.948Z,4.77
2018-07-15T00:46:06.126Z,4.73
2018-07-15T00:51:09.217Z,4.13
2018-07-15T00:56:12.310Z,5.23
2018-07-15T01:01:15.409Z,5.83
2018-07-15T01:06:18.502Z,5.63
2018-07-15T01:11:21.618Z,5.53
2018-07-15T01:16:24.699Z,6.07
2018-07-15T01:21:27.798Z,6.60
2018-07-15T01:26:31.130Z,6.23
2018-07-15T01:31:34.237Z,6.00
2018-07-15T01:36:37.338Z,6.40
2018-07-15T01:41:40.441Z,6.80
2018-07-15T01:46:43.543Z,5.37
2018-07-15T01:51:46.667Z,4.00
2018-07-15T01:56:49.781Z,4.50
2018-07-15T02:01:52.974Z,5.87
2018-07-15T02:06:56.630Z,3.17
2018-07-15T02:11:59.726Z,5.77
2018-07-15T02:17:02.865Z,6.40
2018-07-15T02:22:05.997Z,6.20
2018-07-15T02:27:09.090Z,6.70
2018-07-15T02:32:12.198Z,6.57
2018-07-15T02:37:15.290Z,7.30
2018-07-15T02:42:18.398Z,6.73
2018-07-15T02:47:21.511Z,6.87
2018-07-15T02:52:24.606Z,6.80
2018-07-15T02:57:27.692Z,6.10
2018-07-15T03:02:30.792Z,6.53
2018-07-15T03:07:33.934Z,6.13
2018-07-15T03:12:37.038Z,6.00
2018-07-15T03:17:40.166Z,5.90
2018-07-15T03:22:43.271Z,6.23
2018-07-15T03:27:46.421Z,6.70
2018-07-15T03:32:49.550Z,6.50
2018-07-15T03:37:52.673Z,6.20
2018-07-15T03:42:55.778Z,6.70
2018-07-15T03:47:58.909Z,6.20
2018-07-15T03:53:02.036Z,6.63
2018-07-15T03:58:05.293Z,6.93
2018-07-15T04:03:08.430Z,6.97
2018-07-15T04:08:11.572Z,7.30
2018-07-15T04:13:14.679Z,6.40
2018-07-15T04:18:18.150Z,6.50
2018-07-15T04:23:21.255Z,6.57
2018-07-15T04:28:24.484Z,6.50
2018-07-15T04:33:27.490Z,5.80
2018-07-15T04:38:30.607Z,6.80
2018-07-15T04:43:33.730Z,5.70
2018-07-15T04:48:37.146Z,5.53
2018-07-15T04:53:40.239Z,6.23
2018-07-15T04:58:43.381Z,4.47
2018-07-15T05:03:46.491Z,4.83
2018-07-15T05:08:49.605Z,4.73
2018-07-15T05:13:52.733Z,5.00
2018-07-15T05:18:55.866Z,4.80
2018-07-15T05:23:58.993Z,4.20
2018-07-15T05:29:02.131Z,4.33
2018-07-15T05:34:05.251Z,4.43
2018-07-15T05:39:08.350Z,4.50
2018-07-15T05:44:11.545Z,4.30
2018-07-15T05:49:14.597Z,4.43
2018-07-15T05:54:17.745Z,3.97
2018-07-15T05:59:20.870Z,3.30
2018-07-15T06:04:23.994Z,3.17
2018-07-15T06:09:27.085Z,3.10
2018-07-15T06:14:30.247Z,3.43
2018-07-15T06:19:33.365Z,2.80
2018-07-15T06:24:36.488Z,2.97
2018-07-15T06:29:39.831Z,2.93
2018-07-15T06:34:43.024Z,2.73
2018-07-15T06:39:46.162Z,2.90
2018-07-15T06:44:49.268Z,2.70
2018-07-15T06:49:52.416Z,2.60
2018-07-15T06:54:55.515Z,2.40
2018-07-15T06:59:58.666Z,2.73
2018-07-15T07:05:01.811Z,2.60
2018-07-15T07:10:04.945Z,2.47
2018-07-15T07:15:08.075Z,2.60
2018-07-15T07:20:11.156Z,2.70
2018-07-15T07:25:14.225Z,2.50
2018-07-15T07:30:17.304Z,2.60
2018-07-15T07:35:20.398Z,2.50
2018-07-15T07:40:23.430Z,2.67
2018-07-15T07:45:26.500Z,2.37
2018-07-15T07:50:29.569Z,2.10
2018-07-15T07:55:32.652Z,1.93
2018-07-15T08:00:35.725Z,1.17
2018-07-15T08:05:38.784Z,1.47
2018-07-15T08:10:41.829Z,1.20
2018-07-15T08:15:44.881Z,1.10
2018-07-15T08:20:47.950Z,0.90
2018-07-15T08:25:51.018Z,1.07
2018-07-15T08:31:11.120Z,0.60
2018-07-15T08:36:14.193Z,0.70
2018-07-15T08:41:17.261Z,0.80
2018-07-15T08:46:20.336Z,0.70
2018-07-15T08:51:23.399Z,0.67
2018-07-15T08:56:26.472Z,0.60
2018-07-15T09:01:29.577Z,0.70
2018-07-15T09:06:32.637Z,0.50
2018-07-15T09:11:35.697Z,0.90
2018-07-15T09:16:38.757Z,1.00
2018-07-15T09:21:41.855Z,0.70
2018-07-15T09:26:44.900Z,0.90
2018-07-15T09:31:47.983Z,0.70
2018-07-15T09:36:51.293Z,1.00
2018-07-15T09:41:54.369Z,0.70
2018-07-15T09:46:57.430Z,0.90
2018-07-15T09:52:00.504Z,0.73
2018-07-15T09:57:03.602Z,1.00
2018-07-15T10:02:06.689Z,0.90
2018-07-15T10:07:09.753Z,0.70
2018-07-15T10:12:12.821Z,0.93
2018-07-15T10:17:15.892Z,2.07
2018-07-15T10:22:18.961Z,5.83
2018-07-15T10:27:22.038Z,1.40
2018-07-15T10:32:25.124Z,3.27
2018-07-15T10:37:28.197Z,0.80
2018-07-15T10:42:31.265Z,0.53
2018-07-15T10:47:34.343Z,0.80
2018-07-15T10:52:37.397Z,0.70
2018-07-15T10:57:40.471Z,0.70
2018-07-15T11:02:43.689Z,0.63
2018-07-15T11:07:46.757Z,0.70
2018-07-15T11:12:49.833Z,0.70
2018-07-15T11:17:52.913Z,0.60
2018-07-15T11:22:55.995Z,0.77
2018-07-15T11:27:59.173Z,0.60
2018-07-15T11:33:02.248Z,0.50
2018-07-15T11:38:05.362Z,0.50
2018-07-15T11:43:08.446Z,0.43
2018-07-15T11:48:11.562Z,0.80
2018-07-15T11:53:14.584Z,0.60
2018-07-15T11:58:17.653Z,0.60
2018-07-15T12:03:20.738Z,0.50
2018-07-15T12:08:24.599Z,0.70
2018-07-15T12:13:27.716Z,0.70
2018-07-15T12:18:30.775Z,0.90
2018-07-15T12:23:33.857Z,0.70
2018-07-15T12:28:36.941Z,0.43
2018-07-15T12:33:40.009Z,0.70
2018-07-15T12:38:43.080Z,0.70
2018-07-15T12:43:46.157Z,1.00
2018-07-15T12:48:49.220Z,0.70
2018-07-15T12:53:52.296Z,0.53
2018-07-15T12:58:55.364Z,0.63
2018-07-15T13:03:58.424Z,0.70
2018-07-15T13:09:01.489Z,0.60
2018-07-15T13:14:04.564Z,0.60
2018-07-15T13:19:07.620Z,0.40
2018-07-15T13:24:10.708Z,0.50
2018-07-15T13:29:13.761Z,0.70
2018-07-15T13:34:16.835Z,0.40
2018-07-15T13:39:19.893Z,0.50
2018-07-15T13:44:22.947Z,0.67
2018-07-15T13:49:26.018Z,0.57
2018-07-15T13:54:29.093Z,0.60
2018-07-15T13:59:32.177Z,0.50
2018-07-15T14:04:35.244Z,0.50
2018-07-15T14:09:38.309Z,0.60
2018-07-15T14:14:41.381Z,0.40
2018-07-15T14:19:44.453Z,0.43
2018-07-15T14:24:47.545Z,0.60
2018-07-15T14:29:50.617Z,0.60
2018-07-15T14:34:53.701Z,0.50
2018-07-15T14:39:56.761Z,0.87
2018-07-15T14:44:59.836Z,0.63
2018-07-15T14:50:02.967Z,0.70
2018-07-15T14:55:06.041Z,0.70
2018-07-15T15:00:09.097Z,0.90
2018-07-15T15:05:12.177Z,0.60
2018-07-15T15:10:15.253Z,0.73
2018-07-15T15:15:18.318Z,0.70
2018-07-15T15:20:21.390Z,1.50
2018-07-15T15:25:24.485Z,0.57
2018-07-15T15:30:27.562Z,0.70
2018-07-15T15:35:30.622Z,0.57
2018-07-15T15:40:33.702Z,0.50
2018-07-15T15:45:36.773Z,0.50
2018-07-15T15:50:39.853Z,0.50
2018-07-15T15:55:42.921Z,0.67
2018-07-15T16:00:46.017Z,0.50
2018-07-15T16:05:49.089Z,1.00
2018-07-15T16:10:52.173Z,2.10
2018-07-15T16:15:55.240Z,0.80
2018-07-15T16:20:58.317Z,0.90
2018-07-15T16:26:01.387Z,0.80
2018-07-15T16:31:04.462Z,0.97
2018-07-15T16:36:07.537Z,0.80
2018-07-15T16:41:10.605Z,0.83
2018-07-15T16:46:13.687Z,0.97
2018-07-15T16:51:16.752Z,1.07
2018-07-15T16:56:19.821Z,0.80
2018-07-15T17:01:22.949Z,0.50
2018-07-15T17:06:26.010Z,0.70
2018-07-15T17:11:29.092Z,0.80
2018-07-15T17:16:32.153Z,0.90
2018-07-15T17:21:35.243Z,0.70
2018-07-15T17:26:38.284Z,0.90
2018-07-15T17:31:41.360Z,1.00
2018-07-15T17:36:44.448Z,1.10
2018-07-15T17:41:47.541Z,1.03
2018-07-15T17:46:50.635Z,1.10
2018-07-15T17:51:53.730Z,0.80
2018-07-15T17:56:56.818Z,1.37
2018-07-15T18:01:59.897Z,1.23
2018-07-15T18:07:02.965Z,1.20
2018-07-15T18:12:06.103Z,1.00
2018-07-15T18:17:09.193Z,1.10
2018-07-15T18:22:12.269Z,1.13
2018-07-15T18:27:15.380Z,1.00
2018-07-15T18:32:18.415Z,1.23
2018-07-15T18:37:21.501Z,1.00
2018-07-15T18:42:24.572Z,1.30
2018-07-15T18:47:27.688Z,0.97
2018-07-15T18:52:30.767Z,1.77
2018-07-15T18:57:33.821Z,1.00
2018-07-15T19:02:36.897Z,1.10
2018-07-15T19:07:39.952Z,1.10
2018-07-15T19:12:43.093Z,1.70
2018-07-15T19:17:46.085Z,1.20
2018-07-15T19:22:49.165Z,1.13
2018-07-15T19:27:52.326Z,1.20
2018-07-15T19:32:55.381Z,4.10
2018-07-15T19:37:58.421Z,1.30
2018-07-15T19:43:01.503Z,1.20
2018-07-15T19:48:04.564Z,1.20
2018-07-15T19:53:07.638Z,1.30
2018-07-15T19:58:10.709Z,1.10
2018-07-15T20:03:13.805Z,1.20
2018-07-15T20:08:16.897Z,1.30
2018-07-15T20:13:19.989Z,2.33
2018-07-15T20:18:23.050Z,1.60
2018-07-15T20:23:26.133Z,1.20
2018-07-15T20:28:29.222Z,3.03
2018-07-15T20:33:32.298Z,1.50
2018-07-15T20:38:35.341Z,3.87
2018-07-15T20:43:38.377Z,1.57
2018-07-15T20:48:41.424Z,1.47
2018-07-15T20:53:44.469Z,1.70
2018-07-15T20:58:47.572Z,1.47
2018-07-15T21:03:50.689Z,1.50
2018-07-15T21:08:53.749Z,1.53
2018-07-15T21:13:56.817Z,1.43
2018-07-15T21:18:59.904Z,1.67
2018-07-15T21:24:02.969Z,1.67
2018-07-15T21:29:06.038Z,1.73
2018-07-15T21:34:09.301Z,1.80
2018-07-15T21:39:12.373Z,1.80
2018-07-15T21:44:15.524Z,2.00
2018-07-15T21:49:18.520Z,1.93
2018-07-15T21:54:21.613Z,2.00
2018-07-15T21:59:24.705Z,1.80
2018-07-15T22:04:27.764Z,2.03
2018-07-15T22:09:52.933Z,1.90
2018-07-15T22:14:55.996Z,1.80
2018-07-15T22:19:59.059Z,4.97
2018-07-15T22:25:02.114Z,2.10
2018-07-15T22:30:05.173Z,2.23
2018-07-15T22:35:08.233Z,2.20
2018-07-15T22:40:11.361Z,2.43
2018-07-15T22:45:14.422Z,2.43
2018-07-15T22:50:17.479Z,2.80
2018-07-15T22:55:20.555Z,2.90
2018-07-15T23:00:23.625Z,2.40
2018-07-15T23:05:39.317Z,2.80
2018-07-15T23:10:42.364Z,2.37
2018-07-15T23:15:45.625Z,2.20
2018-07-15T23:20:49.301Z,1.63
2018-07-15T23:25:52.365Z,2.90
2018-07-15T23:30:55.436Z,3.10
2018-07-15T23:35:58.515Z,3.00
2018-07-15T23:41:01.585Z,2.80
2018-07-15T23:46:04.644Z,2.73
2018-07-15T23:51:07.760Z,2.60
2018-07-15T23:56:10.829Z,2.50
